Airfield :
LOGIN :

Register | Disclaimer

   EN    FR    IT 

 










Legend :    VFR   Marginal VFR   IFR   Intensive IFR   Very Intensive IFR
Visi :
Ceiling :
>= 8 km
>= 3000ft
5 to 8 km
1000 to 3000 ft
1500m to 5 km
500 to 1000 ft
800 to 1500m
200 to 500 ft
< 800m
< 200 ft
Symbols :   Thunderstorms  Fog  Heavy snow  Heavy precipitations  Wind > 20 kt
SIGMETs :     Misc.  Thunderstorms  Icing  Turbulence  Mountain Waves  Volcanic Ashes






- Airport Elevation : 290 ft
- IATA code : OSI


LDOS - Osijek

CURRENT METAR :
  • 231000Z 22005KT 170V300 CAVOK 25/14 Q1010

EXPIRED METARs :
  • 230930Z 21007KT 170V250 CAVOK 24/13 Q1011
  • 230900Z 20006KT 170V240 CAVOK 23/14 Q1011
  • 230830Z 19005KT 160V230 CAVOK 21/15 Q1011
  • 230800Z 19006KT 160V230 CAVOK 20/15 Q1011
  • 230730Z 16005KT 9999 FEW047 19/15 Q1011

TAF TAF LDOS
Valid from the 23 at 06:00 until the 24 at 06:00 UTC


230525Z 2306/2406 20005KT 9999 FEW045 TX27/2313Z TN15/2405Z
PROB30
TEMPO 2316/2319 SHRA FEW035TCU



MET'MAP, your aeronautical weather chart ! - Copyright ORBIFLY December 2007 - Disclaimer

ORBIFLY MET'MAP TEAM :

Programming & Development : Alexandra Zaïnal
Concept & original design : Baudouin d'Aumeries
Assistance for programming : Marc-Olivier Méhu
Technical & hardware support : Manuel Goepfert

Contact : metmap@orbifly.com




SOURCES & CREDITS :

   NOAA